createdAt,value
2019-01-02T00:02:04.714Z,46.80
2019-01-02T00:05:10.558Z,46.80
2019-01-02T00:08:16.331Z,47.00
2019-01-02T00:11:22.077Z,47.00
2019-01-02T00:14:28.062Z,47.00
2019-01-02T00:17:33.888Z,46.90
2019-01-02T00:20:40.031Z,47.00
2019-01-02T00:23:46.935Z,47.10
2019-01-02T00:26:52.492Z,46.80
2019-01-02T00:29:58.118Z,46.80
2019-01-02T00:33:03.879Z,47.20
2019-01-02T00:36:09.548Z,47.20
2019-01-02T00:39:15.187Z,46.80
2019-01-02T00:42:20.855Z,46.90
2019-01-02T00:45:26.607Z,47.00
2019-01-02T00:48:32.247Z,46.90
2019-01-02T00:51:39.122Z,46.90
2019-01-02T00:54:46.126Z,46.90
2019-01-02T00:57:52.271Z,46.90
2019-01-02T01:00:57.915Z,47.10
2019-01-02T01:04:03.574Z,46.70
2019-01-02T01:07:09.250Z,46.90
2019-01-02T01:10:17.066Z,47.00
2019-01-02T01:13:23.092Z,46.70
2019-01-02T01:16:30.279Z,46.60
2019-01-02T01:19:36.275Z,46.40
2019-01-02T01:22:43.663Z,46.30
2019-01-02T01:25:49.307Z,46.00
2019-01-02T01:28:54.967Z,46.00
2019-01-02T01:32:00.595Z,46.00
2019-01-02T01:35:07.475Z,46.00
2019-01-02T01:38:13.494Z,46.30
2019-01-02T01:41:19.399Z,46.20
2019-01-02T01:44:27.078Z,46.10
2019-01-02T01:47:33.075Z,45.80
2019-01-02T01:50:39.249Z,46.00
2019-01-02T01:53:45.097Z,45.60
2019-01-02T01:56:51.062Z,45.70
2019-01-02T01:59:57.099Z,45.80
2019-01-02T02:03:03.082Z,45.50
2019-01-02T02:06:08.951Z,45.80
2019-01-02T02:09:14.796Z,45.80
2019-01-02T02:12:20.866Z,45.30
2019-01-02T02:15:26.923Z,45.20
2019-01-02T02:18:34.583Z,45.20
2019-01-02T02:21:40.594Z,45.20
2019-01-02T02:24:47.586Z,45.60
2019-01-02T02:27:53.631Z,45.30
2019-01-02T02:31:00.726Z,45.20
2019-01-02T02:34:06.643Z,45.30
2019-01-02T02:37:14.271Z,45.20
2019-01-02T02:40:19.998Z,45.20
2019-01-02T02:43:26.093Z,45.10
2019-01-02T02:46:31.863Z,45.10
2019-01-02T02:49:37.507Z,45.10
2019-01-02T02:52:43.283Z,45.10
2019-01-02T02:55:48.913Z,45.10
2019-01-02T02:58:54.936Z,45.00
2019-01-02T03:02:02.637Z,45.10
2019-01-02T03:05:10.066Z,45.20
2019-01-02T03:08:16.104Z,45.00
2019-01-02T03:11:23.319Z,45.00
2019-01-02T03:14:29.371Z,45.00
2019-01-02T03:17:35.574Z,44.80
2019-01-02T03:20:41.290Z,45.10
2019-01-02T03:23:46.947Z,45.00
2019-01-02T03:26:52.907Z,45.20
2019-01-02T03:29:58.563Z,45.00
2019-01-02T03:33:04.763Z,44.80
2019-01-02T03:36:10.276Z,45.00
2019-01-02T03:39:15.971Z,45.00
2019-01-02T03:42:23.255Z,44.70
2019-01-02T03:45:28.907Z,44.70
2019-01-02T03:48:36.451Z,44.50
2019-01-02T03:51:42.224Z,44.60
2019-01-02T03:54:47.879Z,44.50
2019-01-02T03:57:53.442Z,44.60
2019-01-02T04:00:59.066Z,44.50
2019-01-02T04:04:04.826Z,44.50
2019-01-02T04:07:10.605Z,44.40
2019-01-02T04:10:16.250Z,44.60
2019-01-02T04:13:23.149Z,44.20
2019-01-02T04:16:28.974Z,44.30
2019-01-02T04:19:34.722Z,44.40
2019-01-02T04:22:40.399Z,44.10
2019-01-02T04:25:46.056Z,44.20
2019-01-02T04:28:51.713Z,44.30
2019-01-02T04:31:57.363Z,43.80
2019-01-02T04:35:03.134Z,43.90
2019-01-02T04:38:08.768Z,43.90
2019-01-02T04:41:14.426Z,43.90
2019-01-02T04:44:20.275Z,43.90
2019-01-02T04:47:25.910Z,43.80
2019-01-02T04:50:31.749Z,43.90
2019-01-02T04:53:37.342Z,44.00
2019-01-02T04:56:43.039Z,44.00
2019-01-02T04:59:49.655Z,43.70
2019-01-02T05:02:55.294Z,43.80
2019-01-02T05:06:00.970Z,43.90
2019-01-02T05:09:08.231Z,44.00
2019-01-02T05:12:13.923Z,43.90
2019-01-02T05:15:19.578Z,43.70
2019-01-02T05:18:25.208Z,44.10
2019-01-02T05:21:30.980Z,44.30
2019-01-02T05:24:36.640Z,44.50
2019-01-02T05:27:42.179Z,44.60
2019-01-02T05:30:47.871Z,44.90
2019-01-02T05:33:54.023Z,45.40
2019-01-02T05:36:59.748Z,45.70
2019-01-02T05:40:07.109Z,45.70
2019-01-02T05:43:12.831Z,45.70
2019-01-02T05:46:18.451Z,45.70
2019-01-02T05:49:24.092Z,45.50
2019-01-02T05:52:29.831Z,45.40
2019-01-02T05:55:35.515Z,45.50
2019-01-02T05:58:41.201Z,45.20
2019-01-02T06:01:46.818Z,45.20
2019-01-02T06:04:52.483Z,45.00
2019-01-02T06:07:58.125Z,44.80
2019-01-02T06:11:03.910Z,44.70
2019-01-02T06:14:09.535Z,44.60
2019-01-02T06:17:15.159Z,44.50
2019-01-02T06:20:20.855Z,44.30
2019-01-02T06:23:26.486Z,44.20
2019-01-02T06:26:33.083Z,44.10
2019-01-02T06:29:38.718Z,44.00
2019-01-02T06:32:44.513Z,43.80
2019-01-02T06:35:50.223Z,43.70
2019-01-02T06:38:55.915Z,43.40
2019-01-02T06:42:01.506Z,43.40
2019-01-02T06:45:09.406Z,43.30
2019-01-02T06:48:15.127Z,43.00
2019-01-02T06:51:20.727Z,38.30
2019-01-02T06:54:26.430Z,38.70
2019-01-02T06:57:32.048Z,38.60
2019-01-02T07:00:40.162Z,38.70
2019-01-02T07:03:45.950Z,38.70
2019-01-02T07:06:51.676Z,38.60
2019-01-02T07:09:57.359Z,38.60
2019-01-02T07:13:03.061Z,38.60
2019-01-02T07:16:08.867Z,38.60
2019-01-02T07:19:14.588Z,38.50
2019-01-02T07:22:20.387Z,38.30
2019-01-02T07:25:25.975Z,38.20
2019-01-02T07:28:33.119Z,38.10
2019-01-02T07:31:38.735Z,37.80
2019-01-02T07:35:27.091Z,38.90
2019-01-02T07:39:24.912Z,38.90
2019-01-02T07:43:19.267Z,38.80
2019-01-02T07:46:55.776Z,39.10
2019-01-02T07:50:43.115Z,38.90
2019-01-02T07:54:31.251Z,38.50
2019-01-02T07:58:20.909Z,38.50
2019-01-02T08:02:22.362Z,39.20
2019-01-02T08:05:42.663Z,38.30
2019-01-02T08:09:47.230Z,38.20
2019-01-02T08:13:24.859Z,38.30
2019-01-02T08:17:21.527Z,38.40
2019-01-02T08:21:30.696Z,38.30
2019-01-02T08:25:19.042Z,38.50
2019-01-02T08:29:01.458Z,38.50
2019-01-02T08:32:48.689Z,38.40
2019-01-02T08:36:37.646Z,39.10
2019-01-02T08:40:32.358Z,38.50
2019-01-02T08:44:26.548Z,38.40
2019-01-02T08:48:15.564Z,38.30
2019-01-02T08:52:17.398Z,39.00
2019-01-02T08:55:35.678Z,39.00
2019-01-02T08:59:14.762Z,39.00
2019-01-02T09:02:46.976Z,39.10
2019-01-02T09:06:19.116Z,38.80
2019-01-02T09:10:29.418Z,38.70
2019-01-02T09:14:27.787Z,38.60
2019-01-02T09:18:10.291Z,38.40
2019-01-02T09:21:58.575Z,38.50
2019-01-02T09:25:46.934Z,38.40
2019-01-02T09:29:33.098Z,38.50
2019-01-02T09:33:14.422Z,33.60
2019-01-02T09:36:58.034Z,35.10
2019-01-02T09:40:31.807Z,35.30
2019-01-02T09:44:27.363Z,36.20
2019-01-02T09:47:54.482Z,36.20
2019-01-02T09:51:47.491Z,36.10
2019-01-02T09:55:32.050Z,36.10
2019-01-02T09:59:24.815Z,36.30
2019-01-02T10:03:06.394Z,36.40
2019-01-02T10:06:58.007Z,35.00
2019-01-02T10:10:48.341Z,36.30
2019-01-02T10:14:40.578Z,37.50
2019-01-02T10:18:18.794Z,37.20
2019-01-02T10:21:57.315Z,37.80
2019-01-02T10:25:39.222Z,37.50
2019-01-02T10:29:10.678Z,38.50
2019-01-02T10:32:43.879Z,39.30
2019-01-02T10:36:33.462Z,39.50
2019-01-02T10:40:48.207Z,39.20
2019-01-02T10:44:37.496Z,39.00
2019-01-02T10:48:12.867Z,38.50
2019-01-02T10:52:13.407Z,38.40
2019-01-02T10:55:48.771Z,37.90
2019-01-02T10:59:47.372Z,37.70
2019-01-02T11:03:31.111Z,37.50
2019-01-02T11:07:19.367Z,37.30
2019-01-02T11:11:02.027Z,37.20
2019-01-02T11:14:54.485Z,37.10
2019-01-02T11:18:13.294Z,37.00
2019-01-02T11:21:54.383Z,36.90
2019-01-02T11:25:43.863Z,36.90
2019-01-02T11:29:22.288Z,36.80
2019-01-02T11:32:54.254Z,37.00
2019-01-02T11:36:40.764Z,37.00
2019-01-02T11:40:15.954Z,37.10
2019-01-02T11:43:57.102Z,37.30
2019-01-02T11:47:02.715Z,37.30
2019-01-02T11:50:11.416Z,37.10
2019-01-02T11:53:17.199Z,37.10
2019-01-02T11:56:24.582Z,37.00
2019-01-02T11:59:30.271Z,36.90
2019-01-02T12:02:35.926Z,36.70
2019-01-02T12:05:41.575Z,35.50
2019-01-02T12:08:47.435Z,35.80
2019-01-02T12:11:53.883Z,41.40
2019-01-02T12:15:01.373Z,39.90
2019-01-02T12:18:07.067Z,40.50
2019-01-02T12:21:12.792Z,41.60
2019-01-02T12:24:18.494Z,41.90
2019-01-02T12:27:24.115Z,42.20
2019-01-02T12:30:31.079Z,42.50
2019-01-02T12:33:36.746Z,43.10
2019-01-02T12:36:42.513Z,43.50
2019-01-02T12:39:48.143Z,43.70
2019-01-02T12:42:53.814Z,43.50
2019-01-02T12:45:59.507Z,43.40
2019-01-02T12:49:05.202Z,41.60
2019-01-02T12:52:10.978Z,40.80
2019-01-02T12:55:16.623Z,41.40
2019-01-02T12:58:22.382Z,40.60
2019-01-02T13:01:44.420Z,40.50
2019-01-02T13:05:34.111Z,40.40
2019-01-02T13:09:26.259Z,40.00
2019-01-02T13:13:11.911Z,40.50
2019-01-02T13:16:47.334Z,39.60
2019-01-02T13:20:49.253Z,39.50
2019-01-02T13:24:04.619Z,39.20
2019-01-02T13:27:27.666Z,39.20
2019-01-02T13:31:25.286Z,39.10
2019-01-02T13:34:58.110Z,39.20
2019-01-02T13:38:22.739Z,39.20
2019-01-02T13:41:53.883Z,39.50
2019-01-02T13:45:29.033Z,38.80
2019-01-02T13:49:06.187Z,38.60
2019-01-02T13:52:11.902Z,38.60
2019-01-02T13:55:19.786Z,39.20
2019-01-02T13:58:25.459Z,38.20
2019-01-02T14:01:31.222Z,38.50
2019-01-02T14:04:38.475Z,38.50
2019-01-02T14:07:44.237Z,38.40
2019-01-02T14:10:50.035Z,38.10
2019-01-02T14:13:55.668Z,38.20
2019-01-02T14:17:01.423Z,37.70
2019-01-02T14:20:07.461Z,37.90
2019-01-02T14:23:13.213Z,38.00
2019-01-02T14:26:18.796Z,38.00
2019-01-02T14:29:24.336Z,38.40
2019-01-02T14:32:31.180Z,38.30
2019-01-02T14:35:38.612Z,38.00
2019-01-02T14:38:45.970Z,38.30
2019-01-02T14:41:51.767Z,37.90
2019-01-02T14:44:57.425Z,37.70
2019-01-02T14:48:03.173Z,37.40
2019-01-02T14:51:08.805Z,37.60
2019-01-02T14:54:14.555Z,37.50
2019-01-02T14:57:20.598Z,37.50
2019-01-02T15:00:26.047Z,37.10
2019-01-02T15:03:31.530Z,37.20
2019-01-02T15:06:36.978Z,37.80
2019-01-02T15:09:42.502Z,37.60
2019-01-02T15:12:47.958Z,37.30
2019-01-02T15:15:54.100Z,37.70
2019-01-02T15:19:00.049Z,37.60
2019-01-02T15:22:06.059Z,37.60
2019-01-02T15:25:11.737Z,37.30
2019-01-02T15:28:19.375Z,37.70
2019-01-02T15:31:25.118Z,37.40
2019-01-02T15:34:30.735Z,37.40
2019-01-02T15:37:36.386Z,36.60
2019-01-02T15:40:42.031Z,37.30
2019-01-02T15:43:47.720Z,37.10
2019-01-02T15:46:53.481Z,36.50
2019-01-02T15:49:58.935Z,36.90
2019-01-02T15:53:04.459Z,36.90
2019-01-02T15:56:09.918Z,36.60
2019-01-02T15:59:15.390Z,36.70
2019-01-02T16:02:20.839Z,37.20
2019-01-02T16:05:26.366Z,36.60
2019-01-02T16:08:33.794Z,36.70
2019-01-02T16:11:39.518Z,36.60
2019-01-02T16:14:45.218Z,36.90
2019-01-02T16:17:50.994Z,36.80
2019-01-02T16:20:56.678Z,36.50
2019-01-02T16:24:02.275Z,36.20
2019-01-02T16:27:07.983Z,36.60
2019-01-02T16:30:13.783Z,37.00
2019-01-02T16:33:20.518Z,36.50
2019-01-02T16:36:26.134Z,36.40
2019-01-02T16:39:31.797Z,37.10
2019-01-02T16:42:37.450Z,36.70
2019-01-02T16:45:43.098Z,36.70
2019-01-02T16:48:48.762Z,36.10
2019-01-02T16:51:54.382Z,36.10
2019-01-02T16:55:00.080Z,36.20
2019-01-02T16:58:05.619Z,36.20
2019-01-02T17:01:11.086Z,36.40
2019-01-02T17:04:16.647Z,35.70
2019-01-02T17:07:22.334Z,36.10
2019-01-02T17:10:28.006Z,36.40
2019-01-02T17:13:33.702Z,35.80
2019-01-02T17:16:39.418Z,35.50
2019-01-02T17:19:45.184Z,36.00
2019-01-02T17:22:51.089Z,35.70
2019-01-02T17:25:57.850Z,35.70
2019-01-02T17:29:03.522Z,36.10
2019-01-02T17:32:09.151Z,36.20
2019-01-02T17:35:14.906Z,37.40
2019-01-02T17:38:20.577Z,37.40
2019-01-02T17:41:26.338Z,36.50
2019-01-02T17:44:32.003Z,36.70
2019-01-02T17:47:37.646Z,37.80
2019-01-02T17:50:43.295Z,37.80
2019-01-02T17:53:48.946Z,37.50
2019-01-02T17:56:55.610Z,37.30
2019-01-02T18:00:01.285Z,37.00
2019-01-02T18:03:06.940Z,36.80
2019-01-02T18:06:12.673Z,36.60
2019-01-02T18:09:18.314Z,36.30
2019-01-02T18:12:25.732Z,36.00
2019-01-02T18:15:31.363Z,35.40
2019-01-02T18:18:37.042Z,35.90
2019-01-02T18:21:42.791Z,33.80
2019-01-02T18:24:48.422Z,33.40
2019-01-02T18:27:54.356Z,33.30
2019-01-02T18:31:00.043Z,33.50
2019-01-02T18:34:06.842Z,33.60
2019-01-02T18:37:12.485Z,33.30
2019-01-02T18:40:18.148Z,33.30
2019-01-02T18:43:23.780Z,33.40
2019-01-02T18:46:29.467Z,33.00
2019-01-02T18:49:35.162Z,33.40
2019-01-02T18:52:40.864Z,33.30
2019-01-02T18:55:46.543Z,34.00
2019-01-02T18:58:52.134Z,34.30
2019-01-02T19:01:57.814Z,34.60
2019-01-02T19:05:03.690Z,34.80
2019-01-02T19:08:09.307Z,34.80
2019-01-02T19:11:14.987Z,34.90
2019-01-02T19:14:21.759Z,34.90
2019-01-02T19:17:27.394Z,34.90
2019-01-02T19:20:33.163Z,34.90
2019-01-02T19:23:38.822Z,34.90
2019-01-02T19:26:44.771Z,34.90
2019-01-02T19:29:52.174Z,34.70
2019-01-02T19:32:57.963Z,34.60
2019-01-02T19:36:03.557Z,34.50
2019-01-02T19:39:10.461Z,34.70
2019-01-02T19:42:16.110Z,34.70
2019-01-02T19:45:21.767Z,34.60
2019-01-02T19:48:27.535Z,34.50
2019-01-02T19:51:33.253Z,34.60
2019-01-02T19:54:38.967Z,34.50
2019-01-02T19:57:44.578Z,34.50
2019-01-02T20:00:50.399Z,34.50
2019-01-02T20:03:56.179Z,34.40
2019-01-02T20:07:01.827Z,34.40
2019-01-02T20:10:09.555Z,35.60
2019-01-02T20:13:15.198Z,35.30
2019-01-02T20:16:20.990Z,34.40
2019-01-02T20:19:26.590Z,33.50
2019-01-02T20:22:32.294Z,34.30
2019-01-02T20:25:38.029Z,34.20
2019-01-02T20:28:43.830Z,34.60
2019-01-02T20:32:08.890Z,34.40
2019-01-02T20:35:14.672Z,34.30
2019-01-02T20:38:20.592Z,34.20
2019-01-02T20:41:26.226Z,34.40
2019-01-02T20:44:32.240Z,34.20
2019-01-02T20:47:37.847Z,34.70
2019-01-02T20:50:43.515Z,35.00
2019-01-02T20:53:49.143Z,35.00
2019-01-02T20:56:55.099Z,34.40
2019-01-02T21:00:01.783Z,34.60
2019-01-02T21:03:08.693Z,33.80
2019-01-02T21:06:14.385Z,34.00
2019-01-02T21:09:20.990Z,34.20
2019-01-02T21:12:27.158Z,33.70
2019-01-02T21:15:32.835Z,33.40
2019-01-02T21:18:38.587Z,33.30
2019-01-02T21:21:44.218Z,33.10
2019-01-02T21:24:49.899Z,33.00
2019-01-02T21:27:55.542Z,32.90
2019-01-02T21:31:01.200Z,32.80
2019-01-02T21:34:06.926Z,32.70
2019-01-02T21:37:12.688Z,32.60
2019-01-02T21:40:18.408Z,32.50
2019-01-02T21:43:24.219Z,32.50
2019-01-02T21:46:29.874Z,32.60
2019-01-02T21:49:35.498Z,32.60
2019-01-02T21:52:41.158Z,32.40
2019-01-02T21:55:46.831Z,32.30
2019-01-02T21:58:52.486Z,32.20
2019-01-02T22:01:58.110Z,32.10
2019-01-02T22:05:03.871Z,32.20
2019-01-02T22:08:09.543Z,32.10
2019-01-02T22:11:15.302Z,32.00
2019-01-02T22:14:20.959Z,32.60
2019-01-02T22:17:26.602Z,31.90
2019-01-02T22:20:32.463Z,31.80
2019-01-02T22:23:38.115Z,31.90
2019-01-02T22:26:44.806Z,31.90
2019-01-02T22:33:45.050Z,31.90
2019-01-02T22:36:50.736Z,31.90
2019-01-02T22:39:56.430Z,31.80
2019-01-02T22:43:02.148Z,31.70
2019-01-02T22:46:07.754Z,32.50
2019-01-02T22:49:14.442Z,33.80
2019-01-02T22:52:20.088Z,34.30
2019-01-02T22:55:25.747Z,34.40
2019-01-02T22:58:31.491Z,34.50
2019-01-02T23:01:52.243Z,34.50
2019-01-02T23:05:19.634Z,34.40
2019-01-02T23:08:47.163Z,34.50
2019-01-02T23:12:14.786Z,34.40
2019-01-02T23:15:38.249Z,34.30
2019-01-02T23:19:01.647Z,34.20
2019-01-02T23:22:31.962Z,34.10
2019-01-02T23:25:56.538Z,34.00
2019-01-02T23:29:33.088Z,34.10
2019-01-02T23:32:56.931Z,33.90
2019-01-02T23:36:27.363Z,33.90
2019-01-02T23:40:02.627Z,33.70
2019-01-02T23:43:26.986Z,33.70
2019-01-02T23:46:50.191Z,33.70
2019-01-02T23:50:27.127Z,33.50
2019-01-02T23:53:49.082Z,33.50
2019-01-02T23:57:11.350Z,33.40
